sensor_id;sensor_type;location;lat;lon;timestamp;temperature;humidity
7192;DHT22;3637;51.494;11.958;2023-05-07T00:02:54;11.50;99.90
7192;DHT22;3637;51.494;11.958;2023-05-07T00:05:56;11.50;99.90
7192;DHT22;3637;51.494;11.958;2023-05-07T00:08:58;11.20;99.90
7192;DHT22;3637;51.494;11.958;2023-05-07T00:12:01;11.10;99.90
7192;DHT22;3637;51.494;11.958;2023-05-07T00:15:04;11.10;99.90
7192;DHT22;3637;51.494;11.958;2023-05-07T00:18:07;11.00;99.90
7192;DHT22;3637;51.494;11.958;2023-05-07T00:21:09;11.00;99.90
7192;DHT22;3637;51.494;11.958;2023-05-07T00:24:10;11.00;99.90
7192;DHT22;3637;51.494;11.958;2023-05-07T00:27:12;11.30;99.90
7192;DHT22;3637;51.494;11.958;2023-05-07T00:30:14;11.00;99.90
7192;DHT22;3637;51.494;11.958;2023-05-07T00:33:17;10.90;99.90
7192;DHT22;3637;51.494;11.958;2023-05-07T00:36:21;10.90;99.90
7192;DHT22;3637;51.494;11.958;2023-05-07T00:39:22;10.80;99.90
7192;DHT22;3637;51.494;11.958;2023-05-07T00:42:24;10.90;99.90
7192;DHT22;3637;51.494;11.958;2023-05-07T00:45:27;10.90;99.90
7192;DHT22;3637;51.494;11.958;2023-05-07T00:48:30;10.90;99.90
7192;DHT22;3637;51.494;11.958;2023-05-07T00:51:33;10.90;99.90
7192;DHT22;3637;51.494;11.958;2023-05-07T00:54:35;10.90;99.90
7192;DHT22;3637;51.494;11.958;2023-05-07T00:57:37;10.90;99.90
7192;DHT22;3637;51.494;11.958;2023-05-07T01:00:40;10.90;99.90
7192;DHT22;3637;51.494;11.958;2023-05-07T01:03:43;10.90;99.90
7192;DHT22;3637;51.494;11.958;2023-05-07T01:06:46;10.90;99.90
7192;DHT22;3637;51.494;11.958;2023-05-07T01:09:48;10.90;99.90
7192;DHT22;3637;51.494;11.958;2023-05-07T01:12:50;11.00;99.90
7192;DHT22;3637;51.494;11.958;2023-05-07T01:15:53;10.90;99.90
7192;DHT22;3637;51.494;11.958;2023-05-07T01:18:58;10.90;99.90
7192;DHT22;3637;51.494;11.958;2023-05-07T01:22:02;11.00;99.90
7192;DHT22;3637;51.494;11.958;2023-05-07T01:25:07;11.00;99.90
7192;DHT22;3637;51.494;11.958;2023-05-07T01:28:09;11.00;99.90
7192;DHT22;3637;51.494;11.958;2023-05-07T01:31:12;11.10;99.90
7192;DHT22;3637;51.494;11.958;2023-05-07T01:34:15;10.90;99.90
7192;DHT22;3637;51.494;11.958;2023-05-07T01:37:18;11.10;99.90
7192;DHT22;3637;51.494;11.958;2023-05-07T01:40:22;11.00;99.90
7192;DHT22;3637;51.494;11.958;2023-05-07T01:43:25;11.00;99.90
7192;DHT22;3637;51.494;11.958;2023-05-07T01:46:27;11.00;99.90
7192;DHT22;3637;51.494;11.958;2023-05-07T01:49:29;11.00;99.90
7192;DHT22;3637;51.494;11.958;2023-05-07T01:52:31;11.00;99.90
7192;DHT22;3637;51.494;11.958;2023-05-07T01:55:35;11.00;99.90
7192;DHT22;3637;51.494;11.958;2023-05-07T01:58:37;10.70;99.90
7192;DHT22;3637;51.494;11.958;2023-05-07T02:01:39;11.00;99.90
7192;DHT22;3637;51.494;11.958;2023-05-07T02:04:40;10.90;99.90
7192;DHT22;3637;51.494;11.958;2023-05-07T02:07:42;11.20;99.90
7192;DHT22;3637;51.494;11.958;2023-05-07T02:10:45;11.00;99.90
7192;DHT22;3637;51.494;11.958;2023-05-07T02:13:47;11.00;99.90
7192;DHT22;3637;51.494;11.958;2023-05-07T02:16:56;11.00;99.90
7192;DHT22;3637;51.494;11.958;2023-05-07T02:19:58;10.90;99.90
7192;DHT22;3637;51.494;11.958;2023-05-07T02:23:00;10.80;99.90
7192;DHT22;3637;51.494;11.958;2023-05-07T02:26:04;10.80;99.90
7192;DHT22;3637;51.494;11.958;2023-05-07T02:29:06;10.90;99.90
7192;DHT22;3637;51.494;11.958;2023-05-07T02:32:07;10.90;99.90
7192;DHT22;3637;51.494;11.958;2023-05-07T02:35:09;10.90;99.90
7192;DHT22;3637;51.494;11.958;2023-05-07T02:38:11;11.20;99.90
7192;DHT22;3637;51.494;11.958;2023-05-07T02:41:14;10.90;99.90
7192;DHT22;3637;51.494;11.958;2023-05-07T02:44:16;10.90;99.90
7192;DHT22;3637;51.494;11.958;2023-05-07T02:47:18;11.00;99.90
7192;DHT22;3637;51.494;11.958;2023-05-07T02:50:20;10.90;99.90
7192;DHT22;3637;51.494;11.958;2023-05-07T02:53:22;10.90;99.90
7192;DHT22;3637;51.494;11.958;2023-05-07T02:56:28;10.90;99.90
7192;DHT22;3637;51.494;11.958;2023-05-07T02:59:30;10.90;99.90
7192;DHT22;3637;51.494;11.958;2023-05-07T03:02:32;10.90;99.90
7192;DHT22;3637;51.494;11.958;2023-05-07T03:05:34;10.90;99.90
7192;DHT22;3637;51.494;11.958;2023-05-07T03:08:36;10.50;99.90
7192;DHT22;3637;51.494;11.958;2023-05-07T03:11:39;11.70;99.90
7192;DHT22;3637;51.494;11.958;2023-05-07T03:14:41;10.90;99.90
7192;DHT22;3637;51.494;11.958;2023-05-07T03:17:42;10.80;99.90
7192;DHT22;3637;51.494;11.958;2023-05-07T03:20:44;11.20;99.90
7192;DHT22;3637;51.494;11.958;2023-05-07T03:23:46;10.80;99.90
7192;DHT22;3637;51.494;11.958;2023-05-07T03:26:49;10.90;99.90
7192;DHT22;3637;51.494;11.958;2023-05-07T03:29:51;11.20;99.90
7192;DHT22;3637;51.494;11.958;2023-05-07T03:32:53;10.80;99.90
7192;DHT22;3637;51.494;11.958;2023-05-07T03:35:55;10.90;99.90
7192;DHT22;3637;51.494;11.958;2023-05-07T03:38:57;10.80;99.90
7192;DHT22;3637;51.494;11.958;2023-05-07T03:42:00;11.10;99.90
7192;DHT22;3637;51.494;11.958;2023-05-07T03:45:03;10.80;99.90
7192;DHT22;3637;51.494;11.958;2023-05-07T03:48:05;10.80;99.90
7192;DHT22;3637;51.494;11.958;2023-05-07T03:51:07;10.80;99.90
7192;DHT22;3637;51.494;11.958;2023-05-07T03:54:09;10.80;99.90
7192;DHT22;3637;51.494;11.958;2023-05-07T03:57:12;10.80;99.90
7192;DHT22;3637;51.494;11.958;2023-05-07T04:00:14;10.70;99.90
7192;DHT22;3637;51.494;11.958;2023-05-07T04:03:16;10.70;99.90
7192;DHT22;3637;51.494;11.958;2023-05-07T04:06:18;10.70;99.90
7192;DHT22;3637;51.494;11.958;2023-05-07T04:09:20;10.70;99.90
7192;DHT22;3637;51.494;11.958;2023-05-07T04:12:23;10.70;99.90
7192;DHT22;3637;51.494;11.958;2023-05-07T04:15:25;11.20;99.90
7192;DHT22;3637;51.494;11.958;2023-05-07T04:18:27;10.70;99.90
7192;DHT22;3637;51.494;11.958;2023-05-07T04:21:28;10.70;99.90
7192;DHT22;3637;51.494;11.958;2023-05-07T04:24:31;10.70;99.90
7192;DHT22;3637;51.494;11.958;2023-05-07T04:27:35;11.00;99.90
7192;DHT22;3637;51.494;11.958;2023-05-07T04:30:38;11.10;99.90
7192;DHT22;3637;51.494;11.958;2023-05-07T04:33:40;10.70;99.90
7192;DHT22;3637;51.494;11.958;2023-05-07T04:36:42;10.70;99.90
7192;DHT22;3637;51.494;11.958;2023-05-07T04:39:44;10.70;99.90
7192;DHT22;3637;51.494;11.958;2023-05-07T04:42:47;10.70;99.90
7192;DHT22;3637;51.494;11.958;2023-05-07T04:45:50;10.80;99.90
7192;DHT22;3637;51.494;11.958;2023-05-07T04:48:52;10.80;99.90
7192;DHT22;3637;51.494;11.958;2023-05-07T04:51:53;10.80;99.90
7192;DHT22;3637;51.494;11.958;2023-05-07T04:54:55;11.10;99.90
7192;DHT22;3637;51.494;11.958;2023-05-07T04:57:58;10.80;99.90
7192;DHT22;3637;51.494;11.958;2023-05-07T05:01:01;10.80;99.90
7192;DHT22;3637;51.494;11.958;2023-05-07T05:04:03;10.80;99.90
7192;DHT22;3637;51.494;11.958;2023-05-07T05:07:05;10.60;99.90
7192;DHT22;3637;51.494;11.958;2023-05-07T05:10:07;10.80;99.90
7192;DHT22;3637;51.494;11.958;2023-05-07T05:13:10;10.90;99.90
7192;DHT22;3637;51.494;11.958;2023-05-07T05:16:13;11.00;99.90
7192;DHT22;3637;51.494;11.958;2023-05-07T05:19:14;11.00;99.90
7192;DHT22;3637;51.494;11.958;2023-05-07T05:22:16;11.00;99.90
7192;DHT22;3637;51.494;11.958;2023-05-07T05:25:18;11.00;99.90
7192;DHT22;3637;51.494;11.958;2023-05-07T05:28:21;10.90;99.90
7192;DHT22;3637;51.494;11.958;2023-05-07T05:31:23;10.90;99.90
7192;DHT22;3637;51.494;11.958;2023-05-07T05:34:25;11.40;99.90
7192;DHT22;3637;51.494;11.958;2023-05-07T05:37:28;11.30;99.90
7192;DHT22;3637;51.494;11.958;2023-05-07T05:40:30;11.30;99.90
7192;DHT22;3637;51.494;11.958;2023-05-07T05:43:33;11.30;99.90
7192;DHT22;3637;51.494;11.958;2023-05-07T05:46:35;11.10;99.90
7192;DHT22;3637;51.494;11.958;2023-05-07T05:49:37;11.00;99.90
7192;DHT22;3637;51.494;11.958;2023-05-07T05:52:39;11.40;99.90
7192;DHT22;3637;51.494;11.958;2023-05-07T05:55:41;11.00;99.90
7192;DHT22;3637;51.494;11.958;2023-05-07T05:58:46;11.00;99.90
7192;DHT22;3637;51.494;11.958;2023-05-07T06:01:47;11.00;99.90
7192;DHT22;3637;51.494;11.958;2023-05-07T06:04:49;11.00;99.90
7192;DHT22;3637;51.494;11.958;2023-05-07T06:07:51;11.10;99.90
7192;DHT22;3637;51.494;11.958;2023-05-07T06:10:52;12.10;99.90
7192;DHT22;3637;51.494;11.958;2023-05-07T06:13:56;11.10;99.90
7192;DHT22;3637;51.494;11.958;2023-05-07T06:16:58;11.00;99.90
7192;DHT22;3637;51.494;11.958;2023-05-07T06:19:59;11.00;99.90
7192;DHT22;3637;51.494;11.958;2023-05-07T06:23:01;11.00;99.90
7192;DHT22;3637;51.494;11.958;2023-05-07T06:26:03;11.00;99.90
7192;DHT22;3637;51.494;11.958;2023-05-07T06:29:07;11.00;99.90
7192;DHT22;3637;51.494;11.958;2023-05-07T06:32:08;11.20;99.90
7192;DHT22;3637;51.494;11.958;2023-05-07T06:35:10;11.10;99.90
7192;DHT22;3637;51.494;11.958;2023-05-07T06:38:12;11.10;99.90
7192;DHT22;3637;51.494;11.958;2023-05-07T06:41:14;11.10;99.90
7192;DHT22;3637;51.494;11.958;2023-05-07T06:44:17;11.10;99.90
7192;DHT22;3637;51.494;11.958;2023-05-07T06:47:20;11.00;99.90
7192;DHT22;3637;51.494;11.958;2023-05-07T06:50:22;11.10;99.90
7192;DHT22;3637;51.494;11.958;2023-05-07T06:53:24;11.20;99.90
7192;DHT22;3637;51.494;11.958;2023-05-07T06:56:27;11.30;99.90
7192;DHT22;3637;51.494;11.958;2023-05-07T06:59:30;11.30;99.90
7192;DHT22;3637;51.494;11.958;2023-05-07T07:02:32;11.30;99.90
7192;DHT22;3637;51.494;11.958;2023-05-07T07:05:33;11.30;99.90
7192;DHT22;3637;51.494;11.958;2023-05-07T07:08:35;11.30;99.90
7192;DHT22;3637;51.494;11.958;2023-05-07T07:11:39;11.30;99.90
7192;DHT22;3637;51.494;11.958;2023-05-07T07:14:42;11.30;99.90
7192;DHT22;3637;51.494;11.958;2023-05-07T07:17:43;11.30;99.90
7192;DHT22;3637;51.494;11.958;2023-05-07T07:20:45;11.60;99.90
7192;DHT22;3637;51.494;11.958;2023-05-07T07:23:47;11.40;99.90
7192;DHT22;3637;51.494;11.958;2023-05-07T07:26:49;11.40;99.90
7192;DHT22;3637;51.494;11.958;2023-05-07T07:29:52;11.30;99.90
7192;DHT22;3637;51.494;11.958;2023-05-07T07:32:54;11.30;99.90
7192;DHT22;3637;51.494;11.958;2023-05-07T07:36:00;11.30;99.90
7192;DHT22;3637;51.494;11.958;2023-05-07T07:39:02;11.40;99.90
7192;DHT22;3637;51.494;11.958;2023-05-07T07:42:04;11.70;99.90
7192;DHT22;3637;51.494;11.958;2023-05-07T07:45:10;11.50;99.90
7192;DHT22;3637;51.494;11.958;2023-05-07T07:48:12;11.80;99.90
7192;DHT22;3637;51.494;11.958;2023-05-07T07:51:14;11.50;99.90
7192;DHT22;3637;51.494;11.958;2023-05-07T07:54:15;11.30;99.90
7192;DHT22;3637;51.494;11.958;2023-05-07T07:57:17;11.30;99.90
7192;DHT22;3637;51.494;11.958;2023-05-07T08:00:20;11.30;99.90
7192;DHT22;3637;51.494;11.958;2023-05-07T08:03:22;11.40;99.90
7192;DHT22;3637;51.494;11.958;2023-05-07T08:06:24;11.50;99.90
7192;DHT22;3637;51.494;11.958;2023-05-07T08:09:27;11.50;99.90
7192;DHT22;3637;51.494;11.958;2023-05-07T08:12:29;11.60;99.90
7192;DHT22;3637;51.494;11.958;2023-05-07T08:15:32;11.60;99.90
7192;DHT22;3637;51.494;11.958;2023-05-07T08:18:34;11.60;99.90
7192;DHT22;3637;51.494;11.958;2023-05-07T08:21:39;11.50;99.90
7192;DHT22;3637;51.494;11.958;2023-05-07T08:24:41;11.40;99.90
7192;DHT22;3637;51.494;11.958;2023-05-07T08:27:42;11.50;99.90
7192;DHT22;3637;51.494;11.958;2023-05-07T08:30:46;11.60;99.90
7192;DHT22;3637;51.494;11.958;2023-05-07T08:33:48;11.60;99.90
7192;DHT22;3637;51.494;11.958;2023-05-07T08:36:50;11.70;99.90
7192;DHT22;3637;51.494;11.958;2023-05-07T08:39:54;11.70;99.90
7192;DHT22;3637;51.494;11.958;2023-05-07T08:42:56;11.70;99.90
7192;DHT22;3637;51.494;11.958;2023-05-07T08:46:03;11.70;99.90
7192;DHT22;3637;51.494;11.958;2023-05-07T08:49:05;11.80;99.90
7192;DHT22;3637;51.494;11.958;2023-05-07T08:52:07;11.80;99.90
7192;DHT22;3637;51.494;11.958;2023-05-07T08:55:09;11.90;99.90
7192;DHT22;3637;51.494;11.958;2023-05-07T08:58:12;12.00;99.90
7192;DHT22;3637;51.494;11.958;2023-05-07T09:01:16;12.00;99.90
7192;DHT22;3637;51.494;11.958;2023-05-07T09:04:18;12.00;99.90
7192;DHT22;3637;51.494;11.958;2023-05-07T09:07:20;12.00;99.90
7192;DHT22;3637;51.494;11.958;2023-05-07T09:10:22;12.00;99.90
7192;DHT22;3637;51.494;11.958;2023-05-07T09:13:24;12.00;99.90
7192;DHT22;3637;51.494;11.958;2023-05-07T09:16:28;11.90;99.90
7192;DHT22;3637;51.494;11.958;2023-05-07T09:19:31;12.00;99.90
7192;DHT22;3637;51.494;11.958;2023-05-07T09:22:39;12.00;99.90
7192;DHT22;3637;51.494;11.958;2023-05-07T09:25:50;12.30;99.90
7192;DHT22;3637;51.494;11.958;2023-05-07T09:29:19;12.00;99.90
7192;DHT22;3637;51.494;11.958;2023-05-07T09:32:34;11.80;99.90
7192;DHT22;3637;51.494;11.958;2023-05-07T09:35:40;12.00;99.90
7192;DHT22;3637;51.494;11.958;2023-05-07T09:38:48;12.20;99.90
7192;DHT22;3637;51.494;11.958;2023-05-07T09:41:51;12.00;99.90
7192;DHT22;3637;51.494;11.958;2023-05-07T09:44:57;11.90;99.90
7192;DHT22;3637;51.494;11.958;2023-05-07T09:48:06;12.00;99.90
7192;DHT22;3637;51.494;11.958;2023-05-07T09:51:28;11.70;99.90
7192;DHT22;3637;51.494;11.958;2023-05-07T09:54:32;11.50;99.90
7192;DHT22;3637;51.494;11.958;2023-05-07T09:57:38;12.10;99.90
7192;DHT22;3637;51.494;11.958;2023-05-07T10:00:45;12.70;99.90
7192;DHT22;3637;51.494;11.958;2023-05-07T10:03:55;12.70;99.90
7192;DHT22;3637;51.494;11.958;2023-05-07T10:07:14;11.90;99.90
7192;DHT22;3637;51.494;11.958;2023-05-07T10:10:39;12.10;99.90
7192;DHT22;3637;51.494;11.958;2023-05-07T10:13:43;12.10;99.90
7192;DHT22;3637;51.494;11.958;2023-05-07T10:16:45;12.30;99.90
7192;DHT22;3637;51.494;11.958;2023-05-07T10:19:57;12.10;99.90
7192;DHT22;3637;51.494;11.958;2023-05-07T10:23:13;12.70;99.90
7192;DHT22;3637;51.494;11.958;2023-05-07T10:26:22;11.90;99.90
7192;DHT22;3637;51.494;11.958;2023-05-07T10:29:39;12.40;99.90
7192;DHT22;3637;51.494;11.958;2023-05-07T10:32:47;12.30;99.90
7192;DHT22;3637;51.494;11.958;2023-05-07T10:35:57;12.20;99.90
7192;DHT22;3637;51.494;11.958;2023-05-07T10:39:00;12.20;99.90
7192;DHT22;3637;51.494;11.958;2023-05-07T10:42:08;12.30;99.90
7192;DHT22;3637;51.494;11.958;2023-05-07T10:45:14;12.30;99.90
7192;DHT22;3637;51.494;11.958;2023-05-07T10:48:17;12.80;99.90
7192;DHT22;3637;51.494;11.958;2023-05-07T10:51:21;12.20;99.90
7192;DHT22;3637;51.494;11.958;2023-05-07T10:54:23;12.20;99.90
7192;DHT22;3637;51.494;11.958;2023-05-07T10:57:35;12.20;99.90
7192;DHT22;3637;51.494;11.958;2023-05-07T11:00:43;12.20;99.90
7192;DHT22;3637;51.494;11.958;2023-05-07T11:04:12;12.20;99.90
7192;DHT22;3637;51.494;11.958;2023-05-07T11:07:39;12.20;99.90
7192;DHT22;3637;51.494;11.958;2023-05-07T11:10:51;12.30;99.90
7192;DHT22;3637;51.494;11.958;2023-05-07T11:13:53;12.30;99.90
7192;DHT22;3637;51.494;11.958;2023-05-07T11:17:02;12.40;99.90
7192;DHT22;3637;51.494;11.958;2023-05-07T11:20:05;12.80;99.90
7192;DHT22;3637;51.494;11.958;2023-05-07T11:26:53;12.50;99.90
7192;DHT22;3637;51.494;11.958;2023-05-07T11:29:56;12.50;99.90
7192;DHT22;3637;51.494;11.958;2023-05-07T11:33:01;12.60;99.90
7192;DHT22;3637;51.494;11.958;2023-05-07T11:36:05;12.50;99.90
7192;DHT22;3637;51.494;11.958;2023-05-07T11:39:23;12.60;99.90
7192;DHT22;3637;51.494;11.958;2023-05-07T11:42:27;12.70;99.90
7192;DHT22;3637;51.494;11.958;2023-05-07T11:45:29;12.60;99.90
7192;DHT22;3637;51.494;11.958;2023-05-07T11:48:31;12.50;99.90
7192;DHT22;3637;51.494;11.958;2023-05-07T11:51:33;12.50;99.90
7192;DHT22;3637;51.494;11.958;2023-05-07T11:54:35;12.60;99.90
7192;DHT22;3637;51.494;11.958;2023-05-07T11:57:39;12.70;99.90
7192;DHT22;3637;51.494;11.958;2023-05-07T12:00:48;12.80;99.90
7192;DHT22;3637;51.494;11.958;2023-05-07T12:03:50;12.70;99.90
7192;DHT22;3637;51.494;11.958;2023-05-07T12:06:54;12.70;99.90
7192;DHT22;3637;51.494;11.958;2023-05-07T12:09:56;12.70;99.90
7192;DHT22;3637;51.494;11.958;2023-05-07T12:12:59;12.60;99.90
7192;DHT22;3637;51.494;11.958;2023-05-07T12:16:01;12.70;99.90
7192;DHT22;3637;51.494;11.958;2023-05-07T12:19:04;12.80;99.90
7192;DHT22;3637;51.494;11.958;2023-05-07T12:22:09;12.80;99.90
7192;DHT22;3637;51.494;11.958;2023-05-07T12:25:10;12.90;99.90
7192;DHT22;3637;51.494;11.958;2023-05-07T12:28:17;13.00;99.90
7192;DHT22;3637;51.494;11.958;2023-05-07T12:31:19;13.00;99.90
7192;DHT22;3637;51.494;11.958;2023-05-07T12:34:22;13.10;99.90
7192;DHT22;3637;51.494;11.958;2023-05-07T12:37:24;13.10;99.90
7192;DHT22;3637;51.494;11.958;2023-05-07T12:40:35;13.10;99.90
7192;DHT22;3637;51.494;11.958;2023-05-07T12:43:40;13.30;99.90
7192;DHT22;3637;51.494;11.958;2023-05-07T12:46:46;13.20;99.90
7192;DHT22;3637;51.494;11.958;2023-05-07T12:49:48;13.80;99.90
7192;DHT22;3637;51.494;11.958;2023-05-07T12:52:51;13.20;99.90
7192;DHT22;3637;51.494;11.958;2023-05-07T12:55:55;13.50;99.90
7192;DHT22;3637;51.494;11.958;2023-05-07T12:59:06;13.10;99.90
7192;DHT22;3637;51.494;11.958;2023-05-07T13:02:08;13.30;99.90
7192;DHT22;3637;51.494;11.958;2023-05-07T13:05:10;13.20;99.90
7192;DHT22;3637;51.494;11.958;2023-05-07T13:08:12;14.00;99.90
7192;DHT22;3637;51.494;11.958;2023-05-07T13:11:14;13.50;99.90
7192;DHT22;3637;51.494;11.958;2023-05-07T13:14:17;13.20;99.90
7192;DHT22;3637;51.494;11.958;2023-05-07T13:17:21;13.20;99.90
7192;DHT22;3637;51.494;11.958;2023-05-07T13:20:23;13.50;99.90
7192;DHT22;3637;51.494;11.958;2023-05-07T13:23:25;13.20;99.90
7192;DHT22;3637;51.494;11.958;2023-05-07T13:26:27;13.30;99.90
7192;DHT22;3637;51.494;11.958;2023-05-07T13:29:30;13.40;99.90
7192;DHT22;3637;51.494;11.958;2023-05-07T13:32:32;13.40;99.90
7192;DHT22;3637;51.494;11.958;2023-05-07T13:35:34;13.60;99.90
7192;DHT22;3637;51.494;11.958;2023-05-07T13:38:36;14.20;99.90
7192;DHT22;3637;51.494;11.958;2023-05-07T13:41:38;13.80;99.90
7192;DHT22;3637;51.494;11.958;2023-05-07T13:44:41;13.50;99.90
7192;DHT22;3637;51.494;11.958;2023-05-07T13:47:44;13.60;99.90
7192;DHT22;3637;51.494;11.958;2023-05-07T13:50:46;13.70;99.90
7192;DHT22;3637;51.494;11.958;2023-05-07T13:53:48;13.80;99.90
7192;DHT22;3637;51.494;11.958;2023-05-07T13:56:50;14.20;99.90
7192;DHT22;3637;51.494;11.958;2023-05-07T13:59:53;13.80;99.90
7192;DHT22;3637;51.494;11.958;2023-05-07T14:02:55;13.80;99.90
7192;DHT22;3637;51.494;11.958;2023-05-07T14:06:00;13.90;99.90
7192;DHT22;3637;51.494;11.958;2023-05-07T14:09:02;14.40;99.90
7192;DHT22;3637;51.494;11.958;2023-05-07T14:12:05;14.20;99.90
7192;DHT22;3637;51.494;11.958;2023-05-07T14:15:19;13.90;99.90
7192;DHT22;3637;51.494;11.958;2023-05-07T14:18:21;13.60;99.90
7192;DHT22;3637;51.494;11.958;2023-05-07T14:21:23;14.20;99.90
7192;DHT22;3637;51.494;11.958;2023-05-07T14:24:24;14.00;99.90
7192;DHT22;3637;51.494;11.958;2023-05-07T14:27:26;14.10;99.90
7192;DHT22;3637;51.494;11.958;2023-05-07T14:30:29;14.00;99.90
7192;DHT22;3637;51.494;11.958;2023-05-07T14:33:31;13.90;99.90
7192;DHT22;3637;51.494;11.958;2023-05-07T14:36:33;13.90;99.90
7192;DHT22;3637;51.494;11.958;2023-05-07T14:39:35;13.90;99.90
7192;DHT22;3637;51.494;11.958;2023-05-07T14:42:37;14.00;99.90
7192;DHT22;3637;51.494;11.958;2023-05-07T14:45:40;14.20;99.90
7192;DHT22;3637;51.494;11.958;2023-05-07T14:48:42;13.90;99.90
7192;DHT22;3637;51.494;11.958;2023-05-07T14:51:45;13.90;99.90
7192;DHT22;3637;51.494;11.958;2023-05-07T14:54:47;14.20;99.90
7192;DHT22;3637;51.494;11.958;2023-05-07T14:57:48;13.90;99.90
7192;DHT22;3637;51.494;11.958;2023-05-07T15:01:02;13.80;99.90
7192;DHT22;3637;51.494;11.958;2023-05-07T15:04:04;13.70;99.90
7192;DHT22;3637;51.494;11.958;2023-05-07T15:07:06;13.30;99.90
7192;DHT22;3637;51.494;11.958;2023-05-07T15:10:09;13.50;99.90
7192;DHT22;3637;51.494;11.958;2023-05-07T15:13:11;13.80;99.90
7192;DHT22;3637;51.494;11.958;2023-05-07T15:16:14;13.80;99.90
7192;DHT22;3637;51.494;11.958;2023-05-07T15:19:16;13.80;99.90
7192;DHT22;3637;51.494;11.958;2023-05-07T15:22:20;13.80;99.90
7192;DHT22;3637;51.494;11.958;2023-05-07T15:25:22;13.80;99.90
7192;DHT22;3637;51.494;11.958;2023-05-07T15:28:24;13.80;99.90
7192;DHT22;3637;51.494;11.958;2023-05-07T15:31:28;13.80;99.90
7192;DHT22;3637;51.494;11.958;2023-05-07T15:34:30;13.80;99.90
7192;DHT22;3637;51.494;11.958;2023-05-07T15:37:32;13.80;99.90
7192;DHT22;3637;51.494;11.958;2023-05-07T15:40:34;13.80;99.90
7192;DHT22;3637;51.494;11.958;2023-05-07T15:43:44;13.70;99.90
7192;DHT22;3637;51.494;11.958;2023-05-07T15:46:48;13.60;99.90
7192;DHT22;3637;51.494;11.958;2023-05-07T15:49:50;14.20;99.90
7192;DHT22;3637;51.494;11.958;2023-05-07T15:52:52;13.90;99.90
7192;DHT22;3637;51.494;11.958;2023-05-07T15:55:54;13.80;99.90
7192;DHT22;3637;51.494;11.958;2023-05-07T15:58:56;13.90;99.90
7192;DHT22;3637;51.494;11.958;2023-05-07T16:02:01;14.10;99.90
7192;DHT22;3637;51.494;11.958;2023-05-07T16:05:04;13.80;99.90
7192;DHT22;3637;51.494;11.958;2023-05-07T16:08:08;13.80;99.90
7192;DHT22;3637;51.494;11.958;2023-05-07T16:11:09;13.80;99.90
7192;DHT22;3637;51.494;11.958;2023-05-07T16:14:11;13.70;99.90
7192;DHT22;3637;51.494;11.958;2023-05-07T16:17:15;13.90;99.90
7192;DHT22;3637;51.494;11.958;2023-05-07T16:20:17;13.80;99.90
7192;DHT22;3637;51.494;11.958;2023-05-07T16:23:21;13.80;99.90
7192;DHT22;3637;51.494;11.958;2023-05-07T16:26:23;13.70;99.90
7192;DHT22;3637;51.494;11.958;2023-05-07T16:29:24;13.70;99.90
7192;DHT22;3637;51.494;11.958;2023-05-07T16:32:28;13.60;99.90
7192;DHT22;3637;51.494;11.958;2023-05-07T16:35:29;13.70;99.90
7192;DHT22;3637;51.494;11.958;2023-05-07T16:38:31;13.40;99.90
7192;DHT22;3637;51.494;11.958;2023-05-07T16:41:33;13.60;99.90
7192;DHT22;3637;51.494;11.958;2023-05-07T16:44:35;13.60;99.90
7192;DHT22;3637;51.494;11.958;2023-05-07T16:47:38;13.60;99.90
7192;DHT22;3637;51.494;11.958;2023-05-07T16:50:40;13.50;99.90
7192;DHT22;3637;51.494;11.958;2023-05-07T16:53:43;13.60;99.90
7192;DHT22;3637;51.494;11.958;2023-05-07T16:56:45;13.70;99.90
7192;DHT22;3637;51.494;11.958;2023-05-07T16:59:47;13.60;99.90
7192;DHT22;3637;51.494;11.958;2023-05-07T17:02:50;13.50;99.90
7192;DHT22;3637;51.494;11.958;2023-05-07T17:05:52;13.40;99.90
7192;DHT22;3637;51.494;11.958;2023-05-07T17:08:54;13.60;99.90
7192;DHT22;3637;51.494;11.958;2023-05-07T17:11:56;13.60;99.90
7192;DHT22;3637;51.494;11.958;2023-05-07T17:14:58;14.10;99.90
7192;DHT22;3637;51.494;11.958;2023-05-07T17:18:01;13.30;99.90
7192;DHT22;3637;51.494;11.958;2023-05-07T17:21:03;13.30;99.90
7192;DHT22;3637;51.494;11.958;2023-05-07T17:24:05;13.20;99.90
7192;DHT22;3637;51.494;11.958;2023-05-07T17:27:07;13.10;99.90
7192;DHT22;3637;51.494;11.958;2023-05-07T17:30:10;13.00;99.90
7192;DHT22;3637;51.494;11.958;2023-05-07T17:33:13;13.10;99.90
7192;DHT22;3637;51.494;11.958;2023-05-07T17:36:15;13.40;99.90
7192;DHT22;3637;51.494;11.958;2023-05-07T17:39:16;13.00;99.90
7192;DHT22;3637;51.494;11.958;2023-05-07T17:42:18;12.70;99.90
7192;DHT22;3637;51.494;11.958;2023-05-07T17:45:20;12.90;99.90
7192;DHT22;3637;51.494;11.958;2023-05-07T17:48:23;13.00;99.90
7192;DHT22;3637;51.494;11.958;2023-05-07T17:51:25;12.90;99.90
7192;DHT22;3637;51.494;11.958;2023-05-07T17:54:28;12.80;99.90
7192;DHT22;3637;51.494;11.958;2023-05-07T17:57:30;12.70;99.90
7192;DHT22;3637;51.494;11.958;2023-05-07T18:00:34;12.80;99.90
7192;DHT22;3637;51.494;11.958;2023-05-07T18:03:38;12.60;99.90
7192;DHT22;3637;51.494;11.958;2023-05-07T18:06:40;12.60;99.90
7192;DHT22;3637;51.494;11.958;2023-05-07T18:09:42;12.60;99.90
7192;DHT22;3637;51.494;11.958;2023-05-07T18:12:44;12.60;99.90
7192;DHT22;3637;51.494;11.958;2023-05-07T18:15:45;12.60;99.90
7192;DHT22;3637;51.494;11.958;2023-05-07T18:18:49;12.50;99.90
7192;DHT22;3637;51.494;11.958;2023-05-07T18:21:51;12.50;99.90
7192;DHT22;3637;51.494;11.958;2023-05-07T18:24:54;12.50;99.90
7192;DHT22;3637;51.494;11.958;2023-05-07T18:27:56;12.40;99.90
7192;DHT22;3637;51.494;11.958;2023-05-07T18:30:58;12.50;99.90
7192;DHT22;3637;51.494;11.958;2023-05-07T18:34:01;12.40;99.90
7192;DHT22;3637;51.494;11.958;2023-05-07T18:37:03;12.30;99.90
7192;DHT22;3637;51.494;11.958;2023-05-07T18:40:05;12.30;99.90
7192;DHT22;3637;51.494;11.958;2023-05-07T18:43:07;12.30;99.90
7192;DHT22;3637;51.494;11.958;2023-05-07T18:46:09;12.20;99.90
7192;DHT22;3637;51.494;11.958;2023-05-07T18:49:12;12.20;99.90
7192;DHT22;3637;51.494;11.958;2023-05-07T18:52:14;12.10;99.90
7192;DHT22;3637;51.494;11.958;2023-05-07T18:55:16;12.00;99.90
7192;DHT22;3637;51.494;11.958;2023-05-07T18:58:19;12.10;99.90
7192;DHT22;3637;51.494;11.958;2023-05-07T19:01:21;12.10;99.90
7192;DHT22;3637;51.494;11.958;2023-05-07T19:04:24;12.00;99.90
7192;DHT22;3637;51.494;11.958;2023-05-07T19:07:26;11.60;99.90
7192;DHT22;3637;51.494;11.958;2023-05-07T19:10:28;11.70;99.90
7192;DHT22;3637;51.494;11.958;2023-05-07T19:13:29;11.90;99.90
7192;DHT22;3637;51.494;11.958;2023-05-07T19:16:31;12.20;99.90
7192;DHT22;3637;51.494;11.958;2023-05-07T19:19:35;12.00;99.90
7192;DHT22;3637;51.494;11.958;2023-05-07T19:22:36;11.70;99.90
7192;DHT22;3637;51.494;11.958;2023-05-07T19:25:38;12.00;99.90
7192;DHT22;3637;51.494;11.958;2023-05-07T19:28:40;11.60;99.90
7192;DHT22;3637;51.494;11.958;2023-05-07T19:31:42;11.60;99.90
7192;DHT22;3637;51.494;11.958;2023-05-07T19:34:45;11.50;99.90
7192;DHT22;3637;51.494;11.958;2023-05-07T19:37:47;11.90;99.90
7192;DHT22;3637;51.494;11.958;2023-05-07T19:40:48;11.50;99.90